Terminal Aerodrome Forecast
Issued by NWS

Home | Current Version | Previous Version | Text Only | Print | Product List | Glossary On
Versions: 1 2 3 4 5 6 7 8 9 10 11 12 13 14 15 16 17 18 19
953
FTUS44 KLZK 210534
TAFBPK
TAF
KBPK 210534Z 2106/2206 17003KT P6SM SKC
     FM211500 16009G18KT P6SM SCT050
     FM220100 14003KT P6SM SKC=

USA.gov is the U.S. government's official web portal to all federal, state and local government web resources and services.